Time;durP1;ratioP1;P1;durP2;ratioP2;P2;SDS_P1;SDS_P2;PMS_P1;PMS_P2;Temp;Humidity;BMP_temperature;BMP_pressure;BME280_temperature;BME280_humidity;BME280_pressure;Samples;Min_cycle;Max_cycle;Signal;HPM_P1;HPM_P2
2024/03/28 00:02:10;;;;;;;3.77;3.43;;;7.70;99.90;;;;;;5053252;28;20793;-70
2024/03/28 00:04:36;;;;;;;4.50;3.23;;;7.70;99.90;;;;;;5073363;28;20415;-70
2024/03/28 00:07:01;;;;;;;3.30;3.00;;;7.70;99.90;;;;;;5055986;28;20808;-71
2024/03/28 00:09:27;;;;;;;3.83;3.40;;;7.80;99.90;;;;;;5074411;28;20217;-71
2024/03/28 00:11:53;;;;;;;3.50;3.10;;;7.70;99.90;;;;;;5074975;28;20174;-70
2024/03/28 00:14:19;;;;;;;7.13;3.80;;;7.80;99.90;;;;;;5056671;28;20265;-69
2024/03/28 00:16:45;;;;;;;11.63;3.50;;;7.80;99.90;;;;;;5074741;28;20743;-70
2024/03/28 00:19:11;;;;;;;4.33;3.17;;;7.60;99.90;;;;;;5074615;28;20228;-70
2024/03/28 00:21:36;;;;;;;3.93;3.37;;;7.60;99.90;;;;;;5074499;28;20966;-70
2024/03/28 00:24:02;;;;;;;3.43;3.13;;;7.70;99.90;;;;;;5074637;28;20169;-70
2024/03/28 00:26:28;;;;;;;3.70;3.07;;;7.70;99.90;;;;;;5074083;28;20455;-70
2024/03/28 00:28:54;;;;;;;3.43;2.77;;;7.60;99.90;;;;;;5074463;28;20448;-70
2024/03/28 00:31:20;;;;;;;2.90;2.70;;;7.60;99.90;;;;;;5074227;28;20177;-70
2024/03/28 00:33:45;;;;;;;4.23;3.27;;;7.50;99.90;;;;;;5066956;28;20183;-70
2024/03/28 00:36:11;;;;;;;4.23;3.00;;;7.40;99.90;;;;;;5059151;28;20431;-70
2024/03/28 00:38:37;;;;;;;5.83;3.57;;;7.30;99.90;;;;;;5073909;28;20684;-70
2024/03/28 00:41:02;;;;;;;5.67;3.60;;;7.40;99.90;;;;;;5056139;28;20456;-70
2024/03/28 00:43:28;;;;;;;4.80;3.17;;;7.40;99.90;;;;;;5074316;28;20588;-70
2024/03/28 00:45:54;;;;;;;4.33;2.93;;;7.40;99.90;;;;;;5056281;28;20652;-70
2024/03/28 00:48:20;;;;;;;3.30;3.00;;;7.50;99.90;;;;;;5073807;28;20220;-70
2024/03/28 00:50:57;;;;;;;4.43;3.70;;;7.40;99.90;;;;;;5074169;28;20545;-70
2024/03/28 00:53:23;;;;;;;7.43;5.67;;;7.40;99.90;;;;;;5073828;28;20674;-70
2024/03/28 00:55:49;;;;;;;4.97;3.40;;;7.40;99.90;;;;;;5056389;28;20420;-70
2024/03/28 00:58:16;;;;;;;4.07;3.10;;;7.50;99.90;;;;;;5055409;28;20416;-70
2024/03/28 01:00:44;;;;;;;6.87;3.50;;;7.40;99.90;;;;;;5073274;28;20206;-71
2024/03/28 01:03:11;;;;;;;5.20;2.90;;;7.40;99.90;;;;;;5073832;28;20405;-70
2024/03/28 01:05:37;;;;;;;3.80;3.40;;;7.40;99.90;;;;;;5074297;28;20782;-70
2024/03/28 01:08:02;;;;;;;5.77;4.00;;;7.30;99.90;;;;;;5072766;28;20462;-70
2024/03/28 01:10:28;;;;;;;5.53;2.93;;;7.30;99.90;;;;;;5073596;28;20194;-71
2024/03/28 01:12:53;;;;;;;4.17;3.13;;;7.30;99.90;;;;;;5073403;28;20170;-70
2024/03/28 01:15:19;;;;;;;4.60;3.30;;;7.20;99.90;;;;;;5072916;28;20178;-70
2024/03/28 01:17:45;;;;;;;5.03;3.50;;;7.20;99.90;;;;;;5072913;28;20185;-70
2024/03/28 01:20:11;;;;;;;3.23;2.53;;;7.10;99.90;;;;;;5055080;28;20251;-70
2024/03/28 01:22:40;;;;;;;4.53;2.80;;;7.10;99.90;;;;;;5073366;28;20415;-70
2024/03/28 01:25:06;;;;;;;4.90;3.70;;;7.00;99.90;;;;;;5073148;28;20405;-70
2024/03/28 01:27:37;;;;;;;3.53;3.20;;;7.00;99.90;;;;;;5055156;28;20839;-70
2024/03/28 01:30:04;;;;;;;2.27;2.07;;;6.90;99.90;;;;;;5055418;28;20440;-71
2024/03/28 01:32:29;;;;;;;4.20;3.07;;;6.90;99.90;;;;;;5073019;28;20610;-71
2024/03/28 01:34:55;;;;;;;2.27;2.07;;;6.80;99.90;;;;;;5055197;28;20915;-71
2024/03/28 01:37:20;;;;;;;3.63;2.40;;;6.80;99.90;;;;;;5072734;28;20177;-71
2024/03/28 01:39:49;;;;;;;2.07;1.93;;;6.90;99.90;;;;;;5055099;28;20557;-71
2024/03/28 01:42:15;;;;;;;3.20;2.77;;;6.90;99.90;;;;;;5073059;28;20193;-71
2024/03/28 01:44:41;;;;;;;3.40;3.10;;;6.90;99.90;;;;;;5073000;28;20396;-71
2024/03/28 01:47:07;;;;;;;3.00;2.70;;;6.90;99.90;;;;;;5072879;28;20253;-71
2024/03/28 01:49:37;;;;;;;3.80;2.97;;;6.90;99.90;;;;;;5072936;28;20463;-71
2024/03/28 01:52:04;;;;;;;2.83;2.60;;;7.00;99.90;;;;;;5072968;28;20525;-71
2024/03/28 01:54:33;;;;;;;4.37;3.73;;;7.00;99.90;;;;;;5073002;28;20411;-71
2024/03/28 01:57:00;;;;;;;3.43;2.93;;;7.00;99.90;;;;;;5054654;28;20416;-71
2024/03/28 01:59:27;;;;;;;4.63;2.43;;;6.90;99.90;;;;;;5072911;28;20420;-71
2024/03/28 02:01:54;;;;;;;2.97;2.33;;;7.00;99.90;;;;;;5072332;28;20456;-71
2024/03/28 02:04:20;;;;;;;4.13;3.23;;;7.00;99.90;;;;;;5072199;28;20413;-71
2024/03/28 02:06:45;;;;;;;4.30;3.40;;;6.90;99.90;;;;;;5072333;28;20826;-71
2024/03/28 02:09:11;;;;;;;3.70;3.20;;;6.90;99.90;;;;;;5072531;28;20424;-71
2024/03/28 02:11:37;;;;;;;4.30;3.30;;;6.90;99.90;;;;;;5072671;28;20170;-71
2024/03/28 02:14:03;;;;;;;3.20;2.50;;;7.00;99.90;;;;;;5072441;28;20174;-71
2024/03/28 02:16:34;;;;;;;4.50;3.20;;;6.90;99.90;;;;;;5054069;28;20418;-71
2024/03/28 02:19:00;;;;;;;3.57;3.27;;;6.80;99.90;;;;;;5054104;28;20432;-71
2024/03/28 02:21:25;;;;;;;3.50;3.03;;;6.80;99.90;;;;;;5072307;28;20505;-71
2024/03/28 02:23:51;;;;;;;3.00;2.63;;;6.80;99.90;;;;;;5072330;28;20694;-71
2024/03/28 02:26:19;;;;;;;4.00;2.50;;;6.80;99.90;;;;;;5071390;28;20170;-72
2024/03/28 02:28:45;;;;;;;4.07;3.47;;;6.80;99.90;;;;;;5072138;28;20277;-71
2024/03/28 02:31:11;;;;;;;3.87;3.10;;;6.70;99.90;;;;;;5072115;28;20440;-71
2024/03/28 02:33:37;;;;;;;3.23;2.67;;;6.60;99.90;;;;;;5053746;28;20927;-71
2024/03/28 02:36:03;;;;;;;4.00;3.13;;;6.60;99.90;;;;;;5072066;28;20562;-71
2024/03/28 02:38:29;;;;;;;2.93;2.63;;;6.60;99.90;;;;;;5071809;28;20454;-71
2024/03/28 02:40:54;;;;;;;3.97;2.83;;;6.60;99.90;;;;;;5053895;28;20452;-71
2024/03/28 02:43:20;;;;;;;3.60;2.77;;;6.60;99.90;;;;;;5072326;28;20245;-71
2024/03/28 02:45:45;;;;;;;3.43;2.90;;;6.50;99.90;;;;;;5071960;28;20166;-71
2024/03/28 02:48:11;;;;;;;3.10;2.80;;;6.60;99.90;;;;;;5071442;28;20173;-71
2024/03/28 02:50:36;;;;;;;3.20;2.90;;;6.50;99.90;;;;;;5071949;28;20181;-71
2024/03/28 02:53:02;;;;;;;4.57;3.33;;;6.50;99.90;;;;;;5071841;28;20182;-71
2024/03/28 02:55:27;;;;;;;7.03;3.40;;;6.40;99.90;;;;;;5071904;28;20177;-71
2024/03/28 02:57:53;;;;;;;5.20;3.27;;;6.30;99.90;;;;;;5053686;28;20170;-71
2024/03/28 03:00:18;;;;;;;3.77;3.10;;;6.10;99.90;;;;;;5071679;28;20240;-71
2024/03/28 03:02:44;;;;;;;5.43;3.20;;;6.10;99.90;;;;;;5071713;28;20170;-71
2024/03/28 03:05:10;;;;;;;4.03;3.63;;;6.00;99.90;;;;;;5071707;28;20649;-71
2024/03/28 03:07:35;;;;;;;4.20;3.07;;;6.00;99.90;;;;;;5071104;28;20200;-71
2024/03/28 03:10:01;;;;;;;3.87;3.33;;;6.00;99.90;;;;;;5071510;28;20939;-71
2024/03/28 03:12:27;;;;;;;3.83;2.87;;;6.00;99.90;;;;;;5072220;28;20502;-71
2024/03/28 03:14:53;;;;;;;3.47;2.63;;;6.00;99.90;;;;;;5071757;28;20169;-71
2024/03/28 03:17:18;;;;;;;3.90;3.50;;;6.00;99.90;;;;;;5071376;28;20170;-71
2024/03/28 03:19:44;;;;;;;6.53;4.00;;;6.00;99.90;;;;;;5071516;28;20534;-71
2024/03/28 03:22:11;;;;;;;3.20;2.90;;;6.10;99.90;;;;;;5053803;28;20161;-71
2024/03/28 03:24:38;;;;;;;4.07;3.23;;;6.10;99.90;;;;;;5071569;28;20700;-71
2024/03/28 03:27:04;;;;;;;4.77;4.23;;;6.10;99.90;;;;;;5071299;28;20405;-71
2024/03/28 03:35:02;;;;;;;3.30;2.77;;;6.00;99.90;;;;;;5071383;28;20595;-71
2024/03/28 03:37:27;;;;;;;4.83;3.40;;;5.90;99.90;;;;;;5071682;28;20990;-71
2024/03/28 03:39:54;;;;;;;5.63;3.13;;;5.90;99.90;;;;;;5075270;28;20193;-71
2024/03/28 03:42:19;;;;;;;2.90;2.67;;;5.80;99.90;;;;;;5075362;28;20687;-71
2024/03/28 03:44:45;;;;;;;4.63;3.37;;;5.90;99.90;;;;;;5075389;28;20388;-71
2024/03/28 03:47:11;;;;;;;3.80;2.87;;;5.90;99.90;;;;;;5075062;28;20541;-71
2024/03/28 03:49:43;;;;;;;5.53;3.40;;;5.90;99.90;;;;;;5057345;28;20427;-71
2024/03/28 03:52:09;;;;;;;3.70;3.07;;;5.90;99.90;;;;;;5074593;28;20174;-71
2024/03/28 03:54:34;;;;;;;5.13;3.37;;;5.90;99.90;;;;;;5075129;28;20795;-71
2024/03/28 03:57:00;;;;;;;3.43;3.13;;;5.90;99.90;;;;;;5074728;28;20404;-71
2024/03/28 03:59:25;;;;;;;6.03;3.10;;;5.90;99.90;;;;;;5075003;28;20224;-71
2024/03/28 04:01:51;;;;;;;4.47;3.27;;;5.90;99.90;;;;;;5074820;28;20292;-71
2024/03/28 04:04:16;;;;;;;5.40;3.07;;;6.00;99.90;;;;;;5074896;28;20563;-71
2024/03/28 04:06:42;;;;;;;4.97;3.17;;;6.00;99.90;;;;;;5056200;28;20162;-71
2024/03/28 04:09:08;;;;;;;5.07;3.43;;;6.00;99.90;;;;;;5074341;28;20186;-71
2024/03/28 04:11:34;;;;;;;6.27;3.80;;;6.00;99.90;;;;;;5074867;28;20524;-71
2024/03/28 04:14:00;;;;;;;3.83;3.47;;;6.00;99.90;;;;;;5074635;28;20404;-71
2024/03/28 04:16:25;;;;;;;6.63;4.00;;;6.00;99.90;;;;;;5074443;28;20401;-71
2024/03/28 04:18:51;;;;;;;4.13;3.73;;;6.00;99.90;;;;;;5074600;28;20197;-71
2024/03/28 04:21:17;;;;;;;4.20;3.13;;;6.00;99.90;;;;;;5074579;28;20753;-71
2024/03/28 04:23:42;;;;;;;8.60;3.70;;;6.00;99.90;;;;;;5074784;28;20259;-71
2024/03/28 04:26:08;;;;;;;5.40;3.63;;;6.00;99.90;;;;;;5074554;28;20449;-71
2024/03/28 04:28:33;;;;;;;6.70;3.90;;;5.90;99.90;;;;;;5056279;28;20182;-71
2024/03/28 04:30:59;;;;;;;5.57;3.37;;;6.00;99.90;;;;;;5074392;28;20170;-71
2024/03/28 04:33:24;;;;;;;5.30;3.73;;;6.00;99.90;;;;;;5074549;28;20181;-71
2024/03/28 04:35:50;;;;;;;7.10;5.63;;;5.90;99.90;;;;;;5074415;28;20646;-71
2024/03/28 04:38:15;;;;;;;8.40;4.33;;;5.90;99.90;;;;;;5073852;28;20158;-71
2024/03/28 04:40:42;;;;;;;4.30;3.50;;;5.90;99.90;;;;;;5074263;28;20205;-71
2024/03/28 04:43:09;;;;;;;4.90;3.90;;;6.00;99.90;;;;;;5074231;28;20180;-71
2024/03/28 04:45:34;;;;;;;7.10;4.47;;;6.00;99.90;;;;;;5074190;28;20403;-71
2024/03/28 04:48:00;;;;;;;5.37;4.47;;;6.00;99.90;;;;;;5074018;28;20397;-71
2024/03/28 04:50:25;;;;;;;5.33;4.30;;;6.00;99.90;;;;;;5073268;28;20190;-71
2024/03/28 04:52:51;;;;;;;7.33;3.77;;;6.00;99.90;;;;;;5073847;28;20186;-71
2024/03/28 04:55:16;;;;;;;6.30;4.40;;;6.10;99.90;;;;;;5073717;28;20217;-71
2024/03/28 04:57:42;;;;;;;6.30;5.50;;;6.00;99.90;;;;;;5073947;28;20170;-71
2024/03/28 05:00:09;;;;;;;8.00;5.97;;;5.90;99.90;;;;;;5073960;28;20611;-71
2024/03/28 05:02:35;;;;;;;6.20;3.93;;;5.90;99.90;;;;;;5073913;28;20908;-71
2024/03/28 05:05:01;;;;;;;6.10;4.60;;;5.90;99.90;;;;;;5074150;28;20396;-71
2024/03/28 05:07:27;;;;;;;11.47;5.07;;;6.00;99.90;;;;;;5073506;28;20237;-71
2024/03/28 05:09:52;;;;;;;11.30;4.77;;;6.00;99.90;;;;;;5073632;28;20455;-71
2024/03/28 05:12:18;;;;;;;6.90;4.57;;;6.00;99.90;;;;;;5073575;28;20250;-71
2024/03/28 05:14:44;;;;;;;8.03;5.63;;;5.90;99.90;;;;;;5073530;28;20204;-71
2024/03/28 05:17:10;;;;;;;6.07;4.70;;;5.90;99.90;;;;;;5073611;28;20405;-71
2024/03/28 05:19:35;;;;;;;6.30;4.00;;;5.90;99.90;;;;;;5073698;28;20224;-71
2024/03/28 05:22:02;;;;;;;7.07;4.50;;;5.90;99.90;;;;;;5055781;28;20255;-71
2024/03/28 05:24:28;;;;;;;7.63;4.60;;;6.00;99.90;;;;;;5055721;28;20163;-71
2024/03/28 05:26:53;;;;;;;5.47;3.27;;;6.00;99.90;;;;;;5073215;28;20438;-71
2024/03/28 05:29:20;;;;;;;6.57;3.57;;;5.90;99.90;;;;;;5073368;28;20459;-71
2024/03/28 05:31:46;;;;;;;5.70;4.00;;;6.00;99.90;;;;;;5073392;28;20444;-71
2024/03/28 05:34:11;;;;;;;3.50;3.20;;;6.00;99.90;;;;;;5073500;28;20178;-71
2024/03/28 05:36:37;;;;;;;5.60;4.17;;;5.90;99.90;;;;;;5073003;28;20158;-71
2024/03/28 05:39:05;;;;;;;5.50;4.00;;;5.90;99.90;;;;;;5073008;28;20182;-71
2024/03/28 05:41:31;;;;;;;5.90;4.23;;;6.00;99.90;;;;;;5073110;28;20335;-71
2024/03/28 05:43:56;;;;;;;5.40;4.00;;;6.00;99.90;;;;;;5073086;28;20404;-71
2024/03/28 05:46:22;;;;;;;5.50;4.13;;;6.00;99.90;;;;;;5072749;28;20400;-71
2024/03/28 05:48:47;;;;;;;4.90;4.20;;;6.10;99.90;;;;;;5072936;28;20797;-71
2024/03/28 05:51:13;;;;;;;5.00;4.47;;;6.20;99.90;;;;;;5055019;28;20257;-71
2024/03/28 05:53:43;;;;;;;7.27;4.57;;;6.40;99.90;;;;;;5072868;28;20170;-71
2024/03/28 05:56:08;;;;;;;4.90;4.30;;;6.60;99.90;;;;;;5054883;28;20174;-71
2024/03/28 05:58:34;;;;;;;5.73;3.87;;;6.80;99.90;;;;;;5054546;28;20413;-71
2024/03/28 06:00:59;;;;;;;4.47;3.50;;;7.10;99.90;;;;;;5072495;28;20194;-71
2024/03/28 06:03:25;;;;;;;6.27;4.53;;;7.30;99.90;;;;;;5072658;28;20167;-71
2024/03/28 06:05:50;;;;;;;3.73;3.40;;;7.50;99.90;;;;;;5072529;28;20249;-71
2024/03/28 06:08:16;;;;;;;5.30;3.57;;;7.70;99.90;;;;;;5054358;28;20664;-71
2024/03/28 06:10:44;;;;;;;5.40;3.77;;;7.80;99.90;;;;;;5072612;28;20171;-71
2024/03/28 06:13:10;;;;;;;6.60;4.20;;;8.00;99.90;;;;;;5072581;28;20165;-71
2024/03/28 06:15:35;;;;;;;5.40;4.00;;;8.40;99.90;;;;;;5072385;28;20771;-71
2024/03/28 06:18:01;;;;;;;4.70;3.70;;;8.70;99.90;;;;;;5072613;28;20178;-71
2024/03/28 06:20:26;;;;;;;4.30;3.10;;;9.40;99.90;;;;;;5072140;28;20198;-71
2024/03/28 06:22:52;;;;;;;3.67;3.37;;;10.00;99.90;;;;;;5072352;28;20190;-71
2024/03/28 06:25:17;;;;;;;5.13;4.23;;;10.60;99.90;;;;;;5072290;28;20207;-71
2024/03/28 06:27:43;;;;;;;4.30;3.00;;;11.40;99.90;;;;;;5071968;28;20166;-71
2024/03/28 06:30:10;;;;;;;3.10;2.80;;;11.80;99.90;;;;;;5072107;28;20186;-69
2024/03/28 06:32:35;;;;;;;8.00;3.20;;;12.10;99.90;;;;;;5071966;28;20236;-69
2024/03/28 06:35:01;;;;;;;3.17;2.70;;;12.40;99.90;;;;;;5072023;28;20408;-69
2024/03/28 06:37:27;;;;;;;2.60;2.13;;;12.00;99.90;;;;;;5071883;28;20596;-69
2024/03/28 06:39:54;;;;;;;3.07;2.40;;;12.20;99.90;;;;;;5071965;28;20186;-69
2024/03/28 06:42:20;;;;;;;3.03;2.83;;;12.50;99.90;;;;;;5071931;28;20196;-68
2024/03/28 06:44:50;;;;;;;2.40;1.93;;;12.70;99.90;;;;;;5071906;28;20408;-69
2024/03/28 06:47:16;;;;;;;2.60;2.40;;;12.50;99.90;;;;;;5071676;28;20405;-71
2024/03/28 06:49:42;;;;;;;3.90;2.87;;;12.20;99.90;;;;;;5071916;28;20482;-71
2024/03/28 06:52:08;;;;;;;2.40;2.20;;;11.80;99.90;;;;;;5071755;28;20428;-71
2024/03/28 06:54:34;;;;;;;5.00;2.20;;;11.60;99.90;;;;;;5071939;28;20166;-71
2024/03/28 06:56:59;;;;;;;1.70;1.60;;;11.20;99.90;;;;;;5071685;28;20649;-71
2024/03/28 06:59:25;;;;;;;1.83;1.53;;;10.70;99.90;;;;;;5071858;28;20543;-71
2024/03/28 07:01:51;;;;;;;6.37;2.60;;;10.30;99.90;;;;;;5071580;28;20244;-71
2024/03/28 07:04:17;;;;;;;4.60;2.53;;;9.90;99.90;;;;;;5071602;28;20167;-71
2024/03/28 07:06:43;;;;;;;2.37;2.17;;;9.80;99.90;;;;;;5072101;28;20426;-71
2024/03/28 07:09:08;;;;;;;2.53;2.33;;;9.60;99.90;;;;;;5071900;28;20231;-71
2024/03/28 07:11:34;;;;;;;2.17;1.97;;;9.40;99.90;;;;;;5053735;28;20178;-71
2024/03/28 07:14:00;;;;;;;4.77;2.20;;;9.30;99.90;;;;;;5053472;28;20177;-71
2024/03/28 07:16:26;;;;;;;3.60;2.33;;;9.20;99.90;;;;;;5071317;28;20173;-71
2024/03/28 07:18:55;;;;;;;2.97;2.13;;;9.20;99.90;;;;;;5070754;28;20424;-71
2024/03/28 07:21:21;;;;;;;2.30;2.10;;;9.20;99.90;;;;;;5071538;28;20279;-71
2024/03/28 07:23:47;;;;;;;2.17;1.50;;;9.10;99.90;;;;;;5071655;28;20408;-71
2024/03/28 07:26:13;;;;;;;2.07;1.73;;;9.10;99.90;;;;;;5071800;28;20400;-71
2024/03/28 07:28:39;;;;;;;3.97;2.10;;;9.10;99.90;;;;;;5071160;28;20189;-71
2024/03/28 07:31:04;;;;;;;4.27;2.00;;;9.00;99.90;;;;;;5053630;28;20170;-71
2024/03/28 07:33:30;;;;;;;2.77;2.30;;;9.00;99.90;;;;;;5071480;28;20175;-71
2024/03/28 07:35:55;;;;;;;2.53;1.90;;;8.90;99.90;;;;;;5071574;28;20450;-71
2024/03/28 07:38:21;;;;;;;1.80;1.37;;;8.80;99.90;;;;;;5071178;28;20170;-71
2024/03/28 07:40:47;;;;;;;1.40;1.20;;;8.70;99.90;;;;;;5071399;28;20190;-71
2024/03/28 07:43:13;;;;;;;1.30;1.20;;;8.70;99.90;;;;;;5071545;28;20594;-71
2024/03/28 07:45:39;;;;;;;1.00;0.90;;;8.60;99.90;;;;;;5071674;28;20759;-71
2024/03/28 07:48:06;;;;;;;1.03;0.77;;;8.40;99.90;;;;;;5071116;28;20418;-71
2024/03/28 07:50:32;;;;;;;1.13;0.97;;;8.20;99.90;;;;;;5071542;28;20424;-71
2024/03/28 07:52:57;;;;;;;1.27;1.10;;;8.10;99.90;;;;;;5071204;28;20473;-71
2024/03/28 07:55:23;;;;;;;2.70;1.10;;;8.00;99.90;;;;;;5071323;28;20911;-71
2024/03/28 07:57:50;;;;;;;1.20;1.00;;;7.80;99.90;;;;;;5070935;28;20661;-71
2024/03/28 08:00:16;;;;;;;1.53;1.43;;;7.80;99.90;;;;;;5071090;28;20280;-71
2024/03/28 08:02:43;;;;;;;1.10;1.00;;;7.70;99.90;;;;;;5070892;28;20396;-71
2024/03/28 08:05:11;;;;;;;1.37;1.00;;;7.70;99.90;;;;;;5071298;28;20405;-71
2024/03/28 08:07:36;;;;;;;2.00;1.00;;;7.60;99.90;;;;;;5071132;28;20440;-71
2024/03/28 08:10:02;;;;;;;1.00;0.90;;;7.60;99.90;;;;;;5071165;28;20505;-71
2024/03/28 08:12:28;;;;;;;1.50;1.40;;;7.60;99.90;;;;;;5071439;28;20173;-71
2024/03/28 08:14:54;;;;;;;2.33;1.00;;;7.60;99.90;;;;;;5071199;28;20163;-71
2024/03/28 08:17:19;;;;;;;2.60;1.00;;;7.60;99.90;;;;;;5070862;28;20515;-71
2024/03/28 08:19:45;;;;;;;1.10;0.97;;;7.60;99.90;;;;;;5071058;28;20424;-71
2024/03/28 08:22:11;;;;;;;1.00;0.80;;;7.60;99.90;;;;;;5071097;28;20184;-71
2024/03/28 08:24:37;;;;;;;1.40;1.30;;;7.70;99.90;;;;;;5071742;28;20580;-71
2024/03/28 08:27:04;;;;;;;2.27;1.20;;;7.70;99.90;;;;;;5074082;28;20201;-71
2024/03/28 08:29:29;;;;;;;2.50;1.13;;;7.80;99.90;;;;;;5074483;28;20497;-70
2024/03/28 08:31:56;;;;;;;1.73;1.00;;;7.90;99.90;;;;;;5056476;28;20413;-70
2024/03/28 08:34:21;;;;;;;1.90;1.43;;;8.00;99.90;;;;;;5056589;28;20763;-71
2024/03/28 08:36:47;;;;;;;2.17;1.53;;;8.10;99.90;;;;;;5074254;28;20492;-70
2024/03/28 08:39:13;;;;;;;1.80;1.60;;;8.20;99.90;;;;;;5074355;28;20721;-70
2024/03/28 08:41:40;;;;;;;1.63;1.47;;;8.20;99.90;;;;;;5056400;28;20568;-70
2024/03/28 08:44:08;;;;;;;2.07;1.37;;;8.30;99.90;;;;;;5074242;28;20186;-70
2024/03/28 08:46:33;;;;;;;1.70;1.50;;;8.40;99.90;;;;;;5073958;28;20401;-70
2024/03/28 08:48:59;;;;;;;1.93;0.97;;;8.60;99.90;;;;;;5074120;28;20466;-70
2024/03/28 08:51:25;;;;;;;3.33;2.57;;;8.70;99.90;;;;;;5074114;28;20174;-71
2024/03/28 08:53:50;;;;;;;1.30;1.20;;;8.80;99.90;;;;;;5074259;28;20413;-71
2024/03/28 08:56:17;;;;;;;2.17;1.97;;;8.80;99.90;;;;;;5074012;28;20683;-70
2024/03/28 08:58:43;;;;;;;4.60;2.60;;;8.90;99.90;;;;;;5073830;28;20181;-71
2024/03/28 09:01:09;;;;;;;2.93;2.43;;;9.00;99.90;;;;;;5073932;28;20440;-70
2024/03/28 09:03:34;;;;;;;3.10;2.00;;;9.10;99.90;;;;;;5073949;28;20401;-70
2024/03/28 09:06:00;;;;;;;2.37;2.17;;;9.10;99.90;;;;;;5074182;28;20169;-70
2024/03/28 09:08:26;;;;;;;1.60;1.37;;;9.10;99.90;;;;;;5055792;28;20400;-70
2024/03/28 09:10:55;;;;;;;1.67;1.33;;;9.10;99.90;;;;;;5055806;28;20528;-70
2024/03/28 09:13:21;;;;;;;2.33;1.93;;;9.20;99.90;;;;;;5073750;28;20178;-71
2024/03/28 09:15:47;;;;;;;1.57;1.07;;;9.40;99.90;;;;;;5073798;28;20396;-70
2024/03/28 09:18:13;;;;;;;1.40;1.30;;;9.50;99.90;;;;;;5073343;28;20663;-71
2024/03/28 09:20:38;;;;;;;3.03;1.27;;;9.80;99.90;;;;;;5073681;28;20523;-70
2024/03/28 09:23:04;;;;;;;1.90;1.70;;;10.20;99.90;;;;;;5073675;28;20408;-70
2024/03/28 09:25:29;;;;;;;2.70;1.60;;;10.30;99.90;;;;;;5073559;28;20207;-71
2024/03/28 09:27:55;;;;;;;1.03;0.93;;;10.50;99.90;;;;;;5073129;28;20169;-71
2024/03/28 09:30:21;;;;;;;1.50;1.10;;;10.50;99.90;;;;;;5073082;28;20224;-70
2024/03/28 09:32:47;;;;;;;2.83;1.80;;;10.70;99.90;;;;;;5055445;28;20185;-70
2024/03/28 09:35:14;;;;;;;2.60;1.77;;;10.80;99.90;;;;;;5055192;28;20413;-71
2024/03/28 09:37:40;;;;;;;2.97;1.83;;;10.80;99.90;;;;;;5073266;28;20511;-71
2024/03/28 09:40:06;;;;;;;3.57;2.20;;;10.90;99.90;;;;;;5073245;28;20519;-70
2024/03/28 09:42:35;;;;;;;2.40;1.87;;;10.90;99.90;;;;;;5073135;28;20927;-70
2024/03/28 09:45:01;;;;;;;2.63;1.37;;;10.80;99.90;;;;;;5055303;28;20831;-70
2024/03/28 09:47:29;;;;;;;1.40;0.90;;;10.60;99.90;;;;;;5072774;28;20396;-71
2024/03/28 09:49:57;;;;;;;1.00;0.70;;;10.40;99.90;;;;;;5055140;28;20546;-70
2024/03/28 09:52:24;;;;;;;0.80;0.60;;;10.30;99.90;;;;;;5072765;28;20420;-71
2024/03/28 09:54:51;;;;;;;1.00;0.70;;;10.30;99.90;;;;;;5072893;28;20910;-70
2024/03/28 09:57:16;;;;;;;0.80;0.60;;;10.10;99.90;;;;;;5072835;28;20407;-69
2024/03/28 09:59:42;;;;;;;0.80;0.60;;;9.90;99.90;;;;;;5073240;28;20484;-70
2024/03/28 10:02:20;;;;;;;0.80;0.60;;;9.80;99.90;;;;;;5072864;28;20205;-71
2024/03/28 10:04:55;;;;;;;1.57;0.70;;;9.70;99.90;;;;;;5072883;28;20260;-69
2024/03/28 10:07:22;;;;;;;2.50;0.60;;;9.70;99.90;;;;;;5072440;28;20805;-69
2024/03/28 10:09:52;;;;;;;0.83;0.60;;;9.80;99.90;;;;;;5072457;28;20420;-70
2024/03/28 10:12:17;;;;;;;0.70;0.50;;;9.90;99.90;;;;;;5072848;28;20396;-70
2024/03/28 10:14:54;;;;;;;0.80;0.57;;;9.80;99.90;;;;;;5072934;28;20415;-70
2024/03/28 10:17:19;;;;;;;0.80;0.70;;;9.80;99.90;;;;;;5072321;28;20170;-70
2024/03/28 10:19:57;;;;;;;5.80;0.60;;;9.90;99.90;;;;;;5072404;28;20438;-70
2024/03/28 10:22:22;;;;;;;1.37;0.87;;;10.10;99.90;;;;;;5072697;28;20169;-70
2024/03/28 10:24:48;;;;;;;0.90;0.70;;;10.40;99.90;;;;;;5072359;28;20404;-71
2024/03/28 10:27:14;;;;;;;1.20;0.70;;;10.70;99.90;;;;;;5072492;28;20652;-69
2024/03/28 10:30:06;;;;;;;0.70;0.50;;;11.00;99.90;;;;;;5072500;28;20193;-69
2024/03/28 10:32:33;;;;;;;0.90;0.60;;;11.50;99.90;;;;;;5067285;28;20428;-69
2024/03/28 10:34:59;;;;;;;0.80;0.60;;;12.20;99.90;;;;;;5072241;28;20408;-69
2024/03/28 10:37:24;;;;;;;1.20;0.63;;;12.70;99.90;;;;;;5071843;28;20411;-70
2024/03/28 10:39:50;;;;;;;2.40;0.70;;;13.20;99.90;;;;;;5072599;28;20190;-69
2024/03/28 10:42:16;;;;;;;0.80;0.60;;;13.90;99.90;;;;;;5072088;28;20171;-70
2024/03/28 10:44:44;;;;;;;0.90;0.60;;;14.90;99.90;;;;;;5071594;28;20529;-69
2024/03/28 10:47:12;;;;;;;1.00;0.70;;;15.70;99.90;;;;;;5071163;28;20396;-69
2024/03/28 10:49:49;;;;;;;1.00;0.60;;;16.00;99.20;;;;;;5071958;28;20416;-70
2024/03/28 10:52:25;;;;;;;0.90;0.60;;;16.10;96.90;;;;;;5071857;28;20459;-66
2024/03/28 10:54:58;;;;;;;1.30;0.70;;;15.90;94.00;;;;;;5072434;28;20412;-68
2024/03/28 10:57:26;;;;;;;1.70;0.80;;;15.40;93.80;;;;;;5071712;28;20423;-68
2024/03/28 10:59:54;;;;;;;1.20;0.73;;;15.10;94.90;;;;;;5071843;28;20432;-68
2024/03/28 11:02:20;;;;;;;0.90;0.70;;;14.50;95.70;;;;;;5054140;28;20751;-68
2024/03/28 11:04:47;;;;;;;0.90;0.70;;;14.00;98.70;;;;;;5071927;28;20409;-68
2024/03/28 11:07:12;;;;;;;0.90;0.70;;;13.70;99.90;;;;;;5071669;28;20409;-68
2024/03/28 11:09:39;;;;;;;3.10;0.63;;;13.70;99.90;;;;;;5071724;28;20455;-68
2024/03/28 11:12:06;;;;;;;0.90;0.60;;;13.60;99.90;;;;;;5071658;28;20165;-68
2024/03/28 11:14:33;;;;;;;0.80;0.60;;;13.70;99.90;;;;;;5071608;28;20451;-68
2024/03/28 11:17:05;;;;;;;0.90;0.80;;;13.80;99.90;;;;;;5079574;28;20451;-68
2024/03/28 11:19:31;;;;;;;0.80;0.60;;;14.10;99.90;;;;;;5079380;28;20432;-69
2024/03/28 11:21:57;;;;;;;0.80;0.60;;;14.20;99.90;;;;;;5091731;28;20447;-69
2024/03/28 11:24:29;;;;;;;1.00;0.70;;;14.30;94.70;;;;;;5091455;28;20188;-68
2024/03/28 11:26:57;;;;;;;1.10;0.80;;;14.80;94.30;;;;;;5091526;28;20400;-69
2024/03/28 11:29:26;;;;;;;0.90;0.70;;;16.20;96.50;;;;;;5091277;28;20426;-68
2024/03/28 11:31:57;;;;;;;0.90;0.70;;;19.40;80.70;;;;;;5091916;28;20399;-69
2024/03/28 11:34:27;;;;;;;1.07;0.90;;;23.30;55.40;;;;;;5073203;28;20960;-69
2024/03/28 11:36:55;;;;;;;1.20;0.77;;;25.70;42.50;;;;;;5091136;28;20410;-69
2024/03/28 11:39:21;;;;;;;1.00;0.70;;;28.50;35.70;;;;;;5091349;28;20426;-69
2024/03/28 11:41:47;;;;;;;1.00;0.70;;;29.30;28.00;;;;;;5091281;28;20454;-69
2024/03/28 11:44:20;;;;;;;2.30;0.80;;;29.40;27.50;;;;;;5087078;28;20771;-69
2024/03/28 11:46:46;;;;;;;1.20;1.00;;;30.10;25.20;;;;;;5051321;28;20768;-67
2024/03/28 11:49:18;;;;;;;1.77;0.87;;;28.00;25.10;;;;;;5033890;28;20442;-67
2024/03/28 11:51:44;;;;;;;1.30;0.70;;;26.10;26.60;;;;;;5051226;28;20202;-67
2024/03/28 11:54:10;;;;;;;1.00;0.70;;;26.00;27.10;;;;;;5051081;28;20491;-67
2024/03/28 11:56:37;;;;;;;1.10;0.80;;;23.30;26.20;;;;;;5070391;28;20431;-68
2024/03/28 11:59:02;;;;;;;1.97;0.70;;;21.70;28.00;;;;;;5072839;28;20597;-68
2024/03/28 12:01:28;;;;;;;1.43;0.80;;;20.30;29.60;;;;;;5074947;28;20789;-68
2024/03/28 12:03:53;;;;;;;1.20;0.80;;;19.10;30.90;;;;;;5075158;28;20509;-69
2024/03/28 12:06:19;;;;;;;1.10;0.80;;;17.80;31.90;;;;;;5074967;28;20163;-69
2024/03/28 12:08:47;;;;;;;2.40;0.80;;;16.90;34.10;;;;;;5074814;28;20546;-68
2024/03/28 12:11:15;;;;;;;1.00;0.60;;;15.90;35.50;;;;;;5074834;28;20165;-69
2024/03/28 12:13:41;;;;;;;1.33;0.80;;;15.00;37.00;;;;;;5075029;28;20416;-68
2024/03/28 12:16:07;;;;;;;1.57;0.70;;;14.60;38.80;;;;;;5057232;28;20468;-68
2024/03/28 12:18:35;;;;;;;1.10;0.90;;;14.40;40.10;;;;;;5074371;28;20848;-68
2024/03/28 12:21:01;;;;;;;2.00;0.83;;;14.10;41.00;;;;;;5074600;28;20190;-69
2024/03/28 12:23:28;;;;;;;0.90;0.80;;;14.00;41.60;;;;;;5074699;28;20389;-69
2024/03/28 12:25:53;;;;;;;1.40;0.80;;;14.10;42.50;;;;;;5074500;28;20550;-71
2024/03/28 12:28:23;;;;;;;0.90;0.80;;;14.20;42.30;;;;;;5074333;28;20858;-68
2024/03/28 12:30:52;;;;;;;2.40;1.00;;;14.10;42.10;;;;;;5074429;28;20170;-69
2024/03/28 12:33:19;;;;;;;1.43;0.97;;;14.20;43.00;;;;;;5074479;28;20408;-69
2024/03/28 12:35:45;;;;;;;1.10;0.90;;;14.80;44.50;;;;;;5074323;28;20400;-69
2024/03/28 12:38:15;;;;;;;1.13;1.00;;;16.50;40.90;;;;;;5074364;28;20665;-69
2024/03/28 12:40:44;;;;;;;1.10;1.00;;;16.10;37.90;;;;;;5074264;28;20616;-69
2024/03/28 12:43:15;;;;;;;1.63;1.10;;;15.80;38.90;;;;;;5074309;28;20773;-68
2024/03/28 12:45:41;;;;;;;1.00;0.90;;;15.50;40.10;;;;;;5056269;28;20405;-69
2024/03/28 12:48:09;;;;;;;7.00;2.17;;;15.40;40.80;;;;;;5073941;28;20408;-69
2024/03/28 12:50:37;;;;;;;6.07;1.90;;;15.40;42.30;;;;;;5073772;28;20897;-68
2024/03/28 12:53:02;;;;;;;6.27;1.00;;;15.70;43.30;;;;;;5073976;28;20424;-69
2024/03/28 12:55:28;;;;;;;1.20;1.10;;;15.70;43.80;;;;;;5074328;28;20998;-69